EVA870 VHHH-RCTP
Flight info
| Callsign | EVA870 |
|---|---|
| Flight time | 1h 6m |
| Altitude | 33000 |
| Route | DALOL V631 ENVAR M750 EXTRA/N0485F290 M750 TONGA TONGA1A |
| Aircraft | B77W/H-SDE1E2E3FGHIJ2J3J4J5M1RWXY/LB1D1 |
Departure
| Time | 2026-05-04 11:19 |
|---|---|
| Airport | Hong Kong International Airport (VHHH) |
Arrival
| Time | 2026-05-04 12:25 |
|---|---|
| Airport | Taiwan Taoyuan International Airport (RCTP) |
| Time | Latitude | Longitude | Altitude | Speed | Heading |
|---|---|---|---|---|---|
| 2026-05-04 10:33 | 22.31443 | 113.92632 | 42 ft | 0 kts | 206° |
| 2026-05-04 10:35 | 22.31507 | 113.92477 | 42 ft | 0 kts | 206° |
| 2026-05-04 10:36 | 22.31477 | 113.92556 | 42 ft | 0 kts | 206° |
| 2026-05-04 10:58 | 22.31486 | 113.92560 | 42 ft | 2 kts | 208° |
| 2026-05-04 10:58 | 22.31500 | 113.92569 | 40 ft | 2 kts | 213° |
| 2026-05-04 10:58 | 22.31514 | 113.92580 | 40 ft | 2 kts | 218° |
| 2026-05-04 10:58 | 22.31526 | 113.92591 | 39 ft | 2 kts | 227° |
| 2026-05-04 10:59 | 22.31536 | 113.92605 | 38 ft | 2 kts | 240° |
| 2026-05-04 10:59 | 22.31543 | 113.92622 | 40 ft | 2 kts | 258° |
| 2026-05-04 10:59 | 22.31545 | 113.92639 | 37 ft | 2 kts | 278° |
| 2026-05-04 10:59 | 22.31541 | 113.92655 | 38 ft | 1 kts | 293° |
| 2026-05-04 11:00 | 22.31539 | 113.92659 | 38 ft | 0 kts | 295° |
| 2026-05-04 11:02 | 22.31541 | 113.92656 | 42 ft | 1 kts | 295° |
| 2026-05-04 11:05 | 22.31568 | 113.92124 | 41 ft | 14 kts | 251° |
| 2026-05-04 11:06 | 22.31506 | 113.92067 | 42 ft | 12 kts | 175° |
| 2026-05-04 11:06 | 22.31424 | 113.92093 | 42 ft | 12 kts | 162° |
| 2026-05-04 11:06 | 22.31344 | 113.92123 | 42 ft | 12 kts | 161° |
| 2026-05-04 11:06 | 22.31256 | 113.92157 | 42 ft | 17 kts | 160° |
| 2026-05-04 11:08 | 22.30630 | 113.92053 | 42 ft | 15 kts | 251° |
| 2026-05-04 11:10 | 22.30245 | 113.90865 | 42 ft | 25 kts | 250° |
| 2026-05-04 11:12 | 22.29887 | 113.89761 | 42 ft | 10 kts | 244° |
| 2026-05-04 11:12 | 22.29825 | 113.89739 | 42 ft | 10 kts | 170° |
| 2026-05-04 11:12 | 22.29776 | 113.89755 | 42 ft | 0 kts | 161° |
| 2026-05-04 11:12 | 22.29775 | 113.89756 | 42 ft | 0 kts | 161° |
| 2026-05-04 11:16 | 22.29667 | 113.89804 | 42 ft | 13 kts | 145° |
| 2026-05-04 11:16 | 22.29651 | 113.89888 | 42 ft | 10 kts | 70° |
| 2026-05-04 11:16 | 22.29655 | 113.89900 | 42 ft | 0 kts | 72° |
| 2026-05-04 11:19 | 22.31462 | 113.95495 | 2580 ft | 184 kts | 69° |
| 2026-05-04 11:19 | 22.31870 | 113.96793 | 3383 ft | 185 kts | 70° |
| 2026-05-04 11:19 | 22.32282 | 113.98144 | 4042 ft | 192 kts | 71° |
| 2026-05-04 11:19 | 22.32707 | 113.99544 | 4698 ft | 199 kts | 71° |
| 2026-05-04 11:20 | 22.33159 | 114.01037 | 5039 ft | 225 kts | 71° |
| 2026-05-04 11:20 | 22.33692 | 114.02791 | 5050 ft | 262 kts | 71° |
| 2026-05-04 11:20 | 22.34271 | 114.04702 | 4995 ft | 271 kts | 71° |
| 2026-05-04 11:20 | 22.34859 | 114.06643 | 4974 ft | 271 kts | 71° |
| 2026-05-04 11:22 | 22.27666 | 114.09327 | 9974 ft | 281 kts | 200° |
| 2026-05-04 11:22 | 22.25667 | 114.09186 | 10703 ft | 300 kts | 177° |
| 2026-05-04 11:23 | 22.23505 | 114.09404 | 10949 ft | 327 kts | 182° |
| 2026-05-04 11:23 | 22.21131 | 114.09314 | 11182 ft | 355 kts | 187° |
| 2026-05-04 11:24 | 22.09870 | 114.20635 | 15666 ft | 425 kts | 124° |
| 2026-05-04 11:25 | 22.08318 | 114.23372 | 16500 ft | 430 kts | 124° |
| 2026-05-04 11:25 | 22.06794 | 114.26088 | 17303 ft | 435 kts | 124° |
| 2026-05-04 11:25 | 22.05193 | 114.28967 | 18095 ft | 441 kts | 124° |
| 2026-05-04 11:26 | 22.02028 | 114.34700 | 19424 ft | 452 kts | 123° |
| 2026-05-04 11:27 | 21.90362 | 114.55829 | 23865 ft | 486 kts | 124° |
| 2026-05-04 11:28 | 21.88621 | 114.58974 | 24372 ft | 490 kts | 124° |
| 2026-05-04 11:28 | 21.86871 | 114.62133 | 24900 ft | 493 kts | 124° |
| 2026-05-04 11:28 | 21.85131 | 114.65274 | 25397 ft | 496 kts | 124° |
| 2026-05-04 11:28 | 21.83360 | 114.68467 | 25903 ft | 499 kts | 124° |
| 2026-05-04 11:29 | 21.81572 | 114.71691 | 26378 ft | 503 kts | 124° |
| 2026-05-04 11:29 | 21.79767 | 114.74943 | 26863 ft | 507 kts | 124° |
| 2026-05-04 11:29 | 21.77950 | 114.78214 | 27341 ft | 510 kts | 124° |
| 2026-05-04 11:29 | 21.76263 | 114.81590 | 27751 ft | 517 kts | 117° |
| 2026-05-04 11:31 | 21.74643 | 115.09421 | 30419 ft | 550 kts | 85° |
| 2026-05-04 11:33 | 21.77936 | 115.38009 | 33036 ft | 555 kts | 84° |
| 2026-05-04 11:33 | 21.78802 | 115.46190 | 33034 ft | 548 kts | 84° |
| 2026-05-04 11:34 | 21.79668 | 115.54438 | 33039 ft | 558 kts | 84° |
| 2026-05-04 11:34 | 21.80537 | 115.62681 | 33030 ft | 556 kts | 84° |
| 2026-05-04 11:35 | 21.81408 | 115.70957 | 33027 ft | 555 kts | 84° |
| 2026-05-04 11:35 | 21.82273 | 115.79211 | 33033 ft | 554 kts | 84° |
| 2026-05-04 11:36 | 21.83131 | 115.87449 | 33033 ft | 554 kts | 84° |
| 2026-05-04 11:36 | 21.83979 | 115.95632 | 33041 ft | 554 kts | 84° |
| 2026-05-04 11:37 | 21.84834 | 116.03922 | 33033 ft | 554 kts | 84° |
| 2026-05-04 11:37 | 21.85675 | 116.12119 | 33036 ft | 554 kts | 84° |
| 2026-05-04 11:38 | 21.86518 | 116.20372 | 33038 ft | 554 kts | 84° |
| 2026-05-04 11:38 | 21.87356 | 116.28623 | 33031 ft | 554 kts | 84° |
| 2026-05-04 11:39 | 21.88191 | 116.36886 | 33039 ft | 554 kts | 84° |
| 2026-05-04 11:41 | 21.90942 | 116.64403 | 33039 ft | 554 kts | 84° |
| 2026-05-04 11:41 | 21.91891 | 116.74000 | 33041 ft | 555 kts | 84° |
| 2026-05-04 11:42 | 21.92572 | 116.80934 | 33049 ft | 555 kts | 84° |
| 2026-05-04 11:42 | 21.93377 | 116.89161 | 33041 ft | 555 kts | 84° |
| 2026-05-04 11:43 | 21.94183 | 116.97433 | 33034 ft | 555 kts | 84° |
| 2026-05-04 11:43 | 21.94983 | 117.05701 | 33036 ft | 555 kts | 84° |
| 2026-05-04 11:44 | 21.95775 | 117.13920 | 33044 ft | 555 kts | 84° |
| 2026-05-04 11:44 | 21.96569 | 117.22208 | 33041 ft | 555 kts | 84° |
| 2026-05-04 11:45 | 21.97358 | 117.30489 | 33040 ft | 555 kts | 84° |
| 2026-05-04 11:45 | 21.98144 | 117.38785 | 33047 ft | 555 kts | 85° |
| 2026-05-04 11:46 | 21.99244 | 117.47002 | 33041 ft | 555 kts | 75° |
| 2026-05-04 11:46 | 22.01856 | 117.54743 | 33054 ft | 553 kts | 63° |
| 2026-05-04 11:47 | 22.05752 | 117.61864 | 33053 ft | 550 kts | 55° |
| 2026-05-04 11:47 | 22.09844 | 117.68858 | 33053 ft | 551 kts | 56° |
| 2026-05-04 11:48 | 22.13873 | 117.75901 | 33048 ft | 552 kts | 56° |
| 2026-05-04 11:48 | 22.17863 | 117.82986 | 33055 ft | 553 kts | 57° |
| 2026-05-04 11:49 | 22.21851 | 117.90079 | 33055 ft | 553 kts | 56° |
| 2026-05-04 11:49 | 22.25848 | 117.97182 | 33056 ft | 553 kts | 56° |
| 2026-05-04 11:50 | 22.29855 | 118.04226 | 33059 ft | 553 kts | 55° |
| 2026-05-04 11:50 | 22.33995 | 118.11248 | 33054 ft | 553 kts | 55° |
| 2026-05-04 11:51 | 22.38124 | 118.18275 | 33057 ft | 554 kts | 55° |
| 2026-05-04 11:51 | 22.42193 | 118.25302 | 33051 ft | 554 kts | 56° |
| 2026-05-04 11:52 | 22.46211 | 118.32423 | 33060 ft | 555 kts | 56° |
| 2026-05-04 11:52 | 22.50225 | 118.39554 | 33065 ft | 555 kts | 56° |
| 2026-05-04 11:53 | 22.54258 | 118.46694 | 33048 ft | 555 kts | 56° |
| 2026-05-04 11:53 | 22.58290 | 118.53827 | 33065 ft | 555 kts | 56° |
| 2026-05-04 11:55 | 22.74515 | 118.82292 | 33056 ft | 556 kts | 56° |
| 2026-05-04 11:56 | 22.78569 | 118.89438 | 33057 ft | 557 kts | 56° |
| 2026-05-04 11:56 | 22.82629 | 118.96603 | 33057 ft | 557 kts | 56° |
| 2026-05-04 11:57 | 22.86684 | 119.03768 | 33056 ft | 558 kts | 56° |
| 2026-05-04 11:57 | 22.90741 | 119.10949 | 33055 ft | 558 kts | 56° |
| 2026-05-04 11:58 | 22.94771 | 119.18091 | 33057 ft | 558 kts | 56° |
| 2026-05-04 11:58 | 22.98825 | 119.25285 | 33055 ft | 559 kts | 56° |
| 2026-05-04 11:59 | 23.02880 | 119.32492 | 33054 ft | 559 kts | 56° |
| 2026-05-04 11:59 | 23.06931 | 119.39702 | 33050 ft | 560 kts | 56° |
| 2026-05-04 12:00 | 23.10989 | 119.46934 | 33050 ft | 560 kts | 57° |
| 2026-05-04 12:00 | 23.15041 | 119.54167 | 33047 ft | 560 kts | 57° |
| 2026-05-04 12:01 | 23.19835 | 119.60598 | 33041 ft | 547 kts | 32° |
| 2026-05-04 12:02 | 23.42769 | 119.74848 | 33042 ft | 533 kts | 25° |
| 2026-05-04 12:03 | 23.49089 | 119.78866 | 33055 ft | 528 kts | 25° |
| 2026-05-04 12:03 | 23.55352 | 119.83103 | 33051 ft | 529 kts | 27° |
| 2026-05-04 12:04 | 23.58433 | 119.85264 | 32831 ft | 522 kts | 27° |
| 2026-05-04 12:04 | 23.61474 | 119.87402 | 32285 ft | 518 kts | 27° |
| 2026-05-04 12:04 | 23.64513 | 119.89524 | 31579 ft | 518 kts | 27° |
| 2026-05-04 12:04 | 23.67562 | 119.91638 | 30873 ft | 519 kts | 27° |
| 2026-05-04 12:05 | 23.70615 | 119.93746 | 30212 ft | 519 kts | 28° |
| 2026-05-04 12:05 | 23.73627 | 119.95824 | 29558 ft | 517 kts | 28° |
| 2026-05-04 12:05 | 23.76651 | 119.97912 | 29064 ft | 510 kts | 28° |
| 2026-05-04 12:05 | 23.79634 | 119.99974 | 28629 ft | 503 kts | 28° |
| 2026-05-04 12:06 | 23.82574 | 120.02007 | 28146 ft | 498 kts | 28° |
| 2026-05-04 12:06 | 23.85485 | 120.04021 | 27640 ft | 493 kts | 28° |
| 2026-05-04 12:06 | 23.88378 | 120.06023 | 27128 ft | 489 kts | 28° |
| 2026-05-04 12:06 | 23.91238 | 120.08003 | 26662 ft | 485 kts | 28° |
| 2026-05-04 12:07 | 23.94071 | 120.09966 | 26201 ft | 480 kts | 28° |
| 2026-05-04 12:07 | 23.96888 | 120.11919 | 25754 ft | 475 kts | 27° |
| 2026-05-04 12:07 | 23.99671 | 120.13849 | 25309 ft | 471 kts | 27° |
| 2026-05-04 12:07 | 24.02423 | 120.15759 | 24868 ft | 467 kts | 27° |
| 2026-05-04 12:08 | 24.05125 | 120.17635 | 24442 ft | 463 kts | 27° |
| 2026-05-04 12:08 | 24.07832 | 120.19515 | 24027 ft | 459 kts | 27° |
| 2026-05-04 12:08 | 24.10515 | 120.21379 | 23604 ft | 455 kts | 27° |
| 2026-05-04 12:08 | 24.13177 | 120.23230 | 23095 ft | 451 kts | 27° |
| 2026-05-04 12:09 | 24.15819 | 120.25069 | 22588 ft | 448 kts | 27° |
| 2026-05-04 12:09 | 24.18439 | 120.26893 | 22084 ft | 445 kts | 27° |
| 2026-05-04 12:09 | 24.21050 | 120.28711 | 21599 ft | 442 kts | 27° |
| 2026-05-04 12:09 | 24.23637 | 120.30514 | 21131 ft | 439 kts | 27° |
| 2026-05-04 12:10 | 24.26208 | 120.32306 | 20690 ft | 436 kts | 27° |
| 2026-05-04 12:10 | 24.28761 | 120.34087 | 20232 ft | 433 kts | 27° |
| 2026-05-04 12:10 | 24.31302 | 120.35861 | 19784 ft | 431 kts | 27° |
| 2026-05-04 12:10 | 24.33824 | 120.37621 | 19366 ft | 428 kts | 27° |
| 2026-05-04 12:11 | 24.36296 | 120.39348 | 18953 ft | 425 kts | 27° |
| 2026-05-04 12:11 | 24.38783 | 120.41086 | 18540 ft | 422 kts | 27° |
| 2026-05-04 12:11 | 24.41261 | 120.42818 | 18088 ft | 420 kts | 27° |
| 2026-05-04 12:11 | 24.43716 | 120.44535 | 17641 ft | 417 kts | 28° |
| 2026-05-04 12:12 | 24.46152 | 120.46241 | 17195 ft | 414 kts | 28° |
| 2026-05-04 12:12 | 24.48576 | 120.47938 | 16758 ft | 411 kts | 28° |
| 2026-05-04 12:12 | 24.50979 | 120.49621 | 16341 ft | 409 kts | 28° |
| 2026-05-04 12:12 | 24.53335 | 120.51272 | 15940 ft | 406 kts | 28° |
| 2026-05-04 12:13 | 24.55721 | 120.52945 | 15497 ft | 404 kts | 28° |
| 2026-05-04 12:14 | 24.71326 | 120.64738 | 13750 ft | 363 kts | 39° |
| 2026-05-04 12:15 | 24.73141 | 120.66608 | 13677 ft | 352 kts | 39° |
| 2026-05-04 12:15 | 24.74905 | 120.68419 | 13572 ft | 338 kts | 39° |
| 2026-05-04 12:15 | 24.76595 | 120.70132 | 13100 ft | 325 kts | 39° |
| 2026-05-04 12:15 | 24.78250 | 120.71786 | 12448 ft | 319 kts | 38° |
| 2026-05-04 12:16 | 24.79894 | 120.73412 | 11761 ft | 316 kts | 38° |
| 2026-05-04 12:16 | 24.81545 | 120.75038 | 11196 ft | 322 kts | 38° |
| 2026-05-04 12:16 | 24.83210 | 120.76679 | 10953 ft | 315 kts | 39° |
| 2026-05-04 12:16 | 24.84810 | 120.78260 | 10438 ft | 306 kts | 39° |
| 2026-05-04 12:17 | 24.86388 | 120.79814 | 9815 ft | 303 kts | 39° |
| 2026-05-04 12:17 | 24.87965 | 120.81367 | 8991 ft | 307 kts | 39° |
| 2026-05-04 12:17 | 24.89581 | 120.82957 | 8584 ft | 311 kts | 39° |
| 2026-05-04 12:17 | 24.91148 | 120.84565 | 8401 ft | 303 kts | 48° |
| 2026-05-04 12:18 | 24.92163 | 120.86580 | 8034 ft | 303 kts | 76° |
| 2026-05-04 12:18 | 24.92578 | 120.88815 | 7674 ft | 302 kts | 82° |
| 2026-05-04 12:18 | 24.92948 | 120.91111 | 7327 ft | 305 kts | 82° |
| 2026-05-04 12:18 | 24.93320 | 120.93399 | 7142 ft | 300 kts | 82° |
| 2026-05-04 12:19 | 24.93690 | 120.95653 | 6909 ft | 298 kts | 82° |
| 2026-05-04 12:19 | 24.94064 | 120.97900 | 6679 ft | 296 kts | 82° |
| 2026-05-04 12:19 | 24.94435 | 121.00104 | 6487 ft | 285 kts | 82° |
| 2026-05-04 12:19 | 24.94790 | 121.02191 | 6056 ft | 268 kts | 82° |
| 2026-05-04 12:20 | 24.95123 | 121.04147 | 5511 ft | 251 kts | 82° |
| 2026-05-04 12:20 | 24.95428 | 121.05947 | 5063 ft | 232 kts | 81° |
| 2026-05-04 12:20 | 24.96019 | 121.07513 | 4548 ft | 216 kts | 50° |
| 2026-05-04 12:20 | 24.97021 | 121.08679 | 4081 ft | 202 kts | 50° |
| 2026-05-04 12:21 | 24.97935 | 121.09775 | 3696 ft | 184 kts | 52° |
| 2026-05-04 12:21 | 24.98747 | 121.10785 | 3304 ft | 168 kts | 53° |
| 2026-05-04 12:21 | 24.99476 | 121.11703 | 2948 ft | 149 kts | 54° |
| 2026-05-04 12:21 | 25.00125 | 121.12526 | 2539 ft | 138 kts | 55° |
| 2026-05-04 12:22 | 25.00744 | 121.13312 | 2083 ft | 130 kts | 55° |
| 2026-05-04 12:22 | 25.01317 | 121.14040 | 1973 ft | 133 kts | 55° |
| 2026-05-04 12:22 | 25.01936 | 121.14825 | 1765 ft | 136 kts | 54° |
| 2026-05-04 12:22 | 25.02543 | 121.15592 | 1568 ft | 132 kts | 55° |
| 2026-05-04 12:23 | 25.03145 | 121.16355 | 1409 ft | 133 kts | 56° |
| 2026-05-04 12:23 | 25.03751 | 121.17124 | 1229 ft | 133 kts | 54° |
| 2026-05-04 12:23 | 25.04375 | 121.17907 | 1050 ft | 140 kts | 52° |
| 2026-05-04 12:23 | 25.05020 | 121.18699 | 873 ft | 138 kts | 52° |
| 2026-05-04 12:24 | 25.05648 | 121.19506 | 644 ft | 138 kts | 49° |
| 2026-05-04 12:24 | 25.06266 | 121.20302 | 432 ft | 133 kts | 50° |
| 2026-05-04 12:24 | 25.06876 | 121.21066 | 277 ft | 133 kts | 50° |
| 2026-05-04 12:24 | 25.07494 | 121.21856 | 125 ft | 137 kts | 50° |
| 2026-05-04 12:25 | 25.08064 | 121.22582 | 107 ft | 106 kts | 48° |
| 2026-05-04 12:25 | 25.08425 | 121.23042 | 106 ft | 53 kts | 50° |
| 2026-05-04 12:25 | 25.08560 | 121.23212 | 107 ft | 19 kts | 49° |
| 2026-05-04 12:25 | 25.08673 | 121.23387 | 106 ft | 35 kts | 65° |
| 2026-05-04 12:26 | 25.08725 | 121.23605 | 108 ft | 26 kts | 80° |
| 2026-05-04 12:26 | 25.08741 | 121.23787 | 107 ft | 20 kts | 108° |
| 2026-05-04 12:26 | 25.08650 | 121.23895 | 107 ft | 18 kts | 139° |
| 2026-05-04 12:26 | 25.08561 | 121.23981 | 109 ft | 16 kts | 140° |
| 2026-05-04 12:27 | 25.08473 | 121.24062 | 107 ft | 16 kts | 140° |
| 2026-05-04 12:27 | 25.08386 | 121.24144 | 108 ft | 16 kts | 139° |
| 2026-05-04 12:27 | 25.08300 | 121.24228 | 109 ft | 16 kts | 139° |
| 2026-05-04 12:27 | 25.08215 | 121.24309 | 107 ft | 16 kts | 139° |
| 2026-05-04 12:28 | 25.08155 | 121.24330 | 108 ft | 9 kts | 198° |
| 2026-05-04 12:28 | 25.08109 | 121.24283 | 107 ft | 9 kts | 227° |
| 2026-05-04 12:28 | 25.08063 | 121.24228 | 109 ft | 10 kts | 229° |
| 2026-05-04 12:28 | 25.08007 | 121.24155 | 108 ft | 18 kts | 230° |
| 2026-05-04 12:29 | 25.07904 | 121.24023 | 106 ft | 22 kts | 229° |
| 2026-05-04 12:29 | 25.07811 | 121.23905 | 108 ft | 20 kts | 230° |
| 2026-05-04 12:29 | 25.07751 | 121.23829 | 108 ft | 20 kts | 229° |
| 2026-05-04 12:29 | 25.07638 | 121.23682 | 108 ft | 19 kts | 230° |
| 2026-05-04 12:30 | 25.07589 | 121.23618 | 108 ft | 16 kts | 229° |
| 2026-05-04 12:30 | 25.07515 | 121.23524 | 108 ft | 16 kts | 229° |
| 2026-05-04 12:30 | 25.07488 | 121.23486 | 108 ft | 5 kts | 231° |
| 2026-05-04 12:30 | 25.07493 | 121.23438 | 107 ft | 6 kts | 306° |
| 2026-05-04 12:31 | 25.07512 | 121.23417 | 108 ft | 6 kts | 318° |
| 2026-05-04 12:31 | 25.07544 | 121.23386 | 109 ft | 6 kts | 319° |
| 2026-05-04 12:31 | 25.07552 | 121.23378 | 108 ft | 0 kts | 319° |